Sunday, November 19, 2017, 2:12 PM GMT
Back to Local

CYQB, Quebec, Que

Location: , , Canada Lat: 46.8
Local Time: 2:12 PM GMT (14:12 GMT) Lon: -71.383
Time Zone: GMT Elev: 229 ft

Show me the last for .
Show Decoded

2017-11-19 13:00 METAR CYQB 191300Z 06015G22KT 5SM -RA BR BKN006 OVC018 01/M00 A2911 RMK SF5SC3
                 SLP862 =
2017-11-19 12:53 METAR CYQB 191253Z 06015G23KT 5SM -RA BR BKN006 OVC019 00/M01 A2911 RMK SF5SC3
                 PRESFR SLP863 =
2017-11-19 12:00 METAR CYQB 191200Z 06016G22KT 4SM -FZRA BR BKN005 OVC020 00/M01 A2914 RMK SF5SC3
                 PRESFR SLP872 =
2017-11-19 11:00 METAR CYQB 191100Z 11010G19KT 060V130 4SM -FZRA BR BKN004 OVC021 00/M01 A2917
                 RMK SF7SC1 SLP884 =
2017-11-19 10:00 METAR CYQB 191000Z 06014G23KT 10SM -FZRA BKN005 OVC021 M00/M01 A2920 RMK SF6SC2
                 PRESFR SLP893 =
2017-11-19 09:23 METAR CYQB 190923Z 07016G22KT 4SM -FZRA BKN006 OVC021 M00/M02 A2922 RMK SF5SC3
                 LLWS REPD AT 0844Z PRESFR SLP902 =
2017-11-19 09:00 METAR CYQB 190900Z 06015G21KT 2 1/2SM -FZRA BR BKN006 OVC020 M01/M02 A2926 RMK
                 SF5SC3 LLWS REPD AT 0844Z SLP913 =
2017-11-19 08:49 METAR CYQB 190849Z 06014G21KT 2SM -FZRA SCT007 OVC020 M00/M02 A2926 RMK SF4SC4
                 LLWS REPD AT 0844Z SLP915 =
2017-11-19 08:00 METAR CYQB 190800Z 06015G21KT 2SM -SN OVC020 M01/M03 A2929 RMK SC8 SLP924 =
2017-11-19 07:43 METAR CYQB 190743Z 06017G23KT 2SM -SN OVC018 M01/M03 A2929 RMK SC8 PRESFR SLP925
                 =
2017-11-19 07:00 METAR CYQB 190700Z 06013G20KT 3SM -SN OVC021 M01/M04 A2935 RMK SC8 SLP944 =
2017-11-19 06:55 METAR CYQB 190655Z 06013G20KT 3SM -SN OVC021 M01/M04 A2936 RMK SC8 PRESFR SLP946
                 =
2017-11-19 06:00 METAR CYQB 190600Z 07014G19KT 2SM -SN OVC026 M00/M05 A2940 RMK SC8 SLP960 =
2017-11-19 05:56 METAR CYQB 190556Z 07013G19KT 2SM -SN OVC027 M00/M05 A2940 RMK SC8 SLP960 =
2017-11-19 05:15 METAR CYQB 190515Z 07014G20KT 15SM -RA OVC031 M00/M05 A2943 RMK SC8 SLP971 =
2017-11-19 05:00 METAR CYQB 190500Z 07014G25KT 15SM OVC033 M00/M05 A2944 RMK SC8 SLP973 =
2017-11-19 04:50 METAR CYQB 190450Z 07016G23KT 15SM BKN034 OVC068 M00/M05 A2944 RMK SC7AC1 PRESFR
                 SLP975 =
2017-11-19 04:25 METAR CYQB 190425Z 07013G20KT 15SM -RA BKN056 OVC065 M00/M05 A2947 RMK SC7SC1
                 SLP986 =
2017-11-19 04:00 METAR CYQB 190400Z 07016KT 15SM BKN074 OVC082 M00/M05 A2948 RMK AC7AC1 SLP988 =
2017-11-19 03:00 METAR CYQB 190300Z 08012G20KT 15SM BKN075 OVC084 M00/M05 A2952 RMK AC7AC1 PRESFR
                 SLP004 =
2017-11-19 02:00 METAR CYQB 190200Z 07011G23KT 15SM SCT064 OVC072 M01/M05 A2957 RMK SC4AC4 SLP018
                 =
2017-11-19 01:00 METAR CYQB 190100Z 07012G19KT 15SM FEW050 SCT065 OVC075 M01/M06 A2960 RMK
                 SC1SC4AC4 SC TR SLP028 =
2017-11-19 00:00 METAR CYQB 190000Z 07007KT 15SM FEW065 OVC080 M00/M06 A2961 RMK SC1AC7 SLP033 =
2017-11-18 23:00 METAR CYQB 182300Z 06008G15KT 15SM OVC092 M01/M06 A2962 RMK AC8 SLP038 =
2017-11-18 22:00 METAR CYQB 182200Z 06008KT 15SM OVC087 M02/M07 A2965 RMK AC8 SLP047 =
2017-11-18 21:00 METAR CYQB 182100Z 07009KT 30SM BKN095 M03/M08 A2964 RMK AC7 PRESFR SLP044 =
2017-11-18 20:00 METAR CYQB 182000Z 05014KT 30SM BKN085 OVC100 M04/M08 A2965 RMK AC7AC1 PRESFR
                 SLP048 =
2017-11-18 19:00 METAR CYQB 181900Z 09003KT 050V120 20SM OVC120 M04/M09 A2975 RMK AC8 HAZY VIRGA
                 SLP081 =
2017-11-18 18:00 METAR CYQB 181800Z 05005KT 20SM OVC120 M05/M10 A2976 RMK AC8 HAZY SLP083 =
2017-11-18 17:00 METAR CYQB 181700Z 08006KT 30SM OVC130 M06/M10 A2980 RMK AC8 SLP096 =
2017-11-18 16:00 METAR CYQB 181600Z 03003KT 020V100 30SM FEW009 OVC120 M06/M10 A2983 RMK SF1AC8
                 SF TR PRESFR SLP107 =
2017-11-18 15:00 METAR CYQB 181500Z VRB02KT 30SM FEW009 OVC130 M07/M11 A2988 RMK SF2AC6 SLP126 =

Support USWX by starting your Amazon purchase here.